Time;durP1;ratioP1;P1;durP2;ratioP2;P2;SDS_P1;SDS_P2;PMS_P1;PMS_P2;Temp;Humidity;BMP_temperature;BMP_pressure;BME280_temperature;BME280_humidity;BME280_pressure;Samples;Min_cycle;Max_cycle;Signal;HPM_P1;HPM_P2
2021/07/29 00:00:45;;;;;;;3.27;2.97;;;17.60;99.90;;;;;;5029660;28;20185;-37
2021/07/29 00:03:10;;;;;;;3.47;3.03;;;17.60;99.90;;;;;;5026318;28;20190;-37
2021/07/29 00:05:37;;;;;;;4.53;3.27;;;17.60;99.90;;;;;;5039506;28;20761;-37
2021/07/29 00:08:03;;;;;;;4.37;3.60;;;17.50;99.90;;;;;;5043447;28;20245;-37
2021/07/29 00:10:30;;;;;;;4.20;3.37;;;17.50;99.90;;;;;;5039020;28;20424;-37
2021/07/29 00:12:56;;;;;;;4.50;4.10;;;17.50;99.90;;;;;;5031202;28;20779;-37
2021/07/29 00:15:22;;;;;;;8.40;4.27;;;17.50;99.90;;;;;;5026270;28;20511;-37
2021/07/29 00:20:19;;;;;;;5.10;3.60;;;17.40;99.90;;;;;;5026356;28;20186;-37
2021/07/29 00:22:48;;;;;;;5.00;3.90;;;17.40;99.90;;;;;;5026516;28;20469;-37
2021/07/29 00:25:15;;;;;;;4.77;4.00;;;17.40;99.90;;;;;;5036191;28;20795;-37
2021/07/29 00:27:41;;;;;;;4.47;3.17;;;17.40;99.90;;;;;;5031009;28;20524;-37
2021/07/29 00:30:08;;;;;;;3.37;3.07;;;17.40;99.90;;;;;;5034349;28;20493;-36
2021/07/29 00:32:34;;;;;;;3.80;3.50;;;17.40;99.90;;;;;;5025892;28;20440;-37
2021/07/29 00:35:04;;;;;;;5.60;4.20;;;17.30;99.90;;;;;;5025944;28;20432;-36
2021/07/29 00:37:30;;;;;;;4.30;3.70;;;17.30;99.90;;;;;;5024968;28;20289;-36
2021/07/29 00:39:55;;;;;;;3.70;3.40;;;17.20;99.90;;;;;;5036445;28;20767;-36
2021/07/29 00:42:21;;;;;;;4.37;3.90;;;17.20;99.90;;;;;;5038153;28;20428;-37
2021/07/29 00:44:47;;;;;;;4.07;3.40;;;17.20;99.90;;;;;;5029551;28;20182;-36
2021/07/29 00:47:14;;;;;;;6.23;3.73;;;17.20;99.90;;;;;;5028310;28;20664;-37
2021/07/29 00:49:40;;;;;;;4.00;3.70;;;17.10;99.90;;;;;;5024667;28;20568;-37
2021/07/29 00:52:06;;;;;;;4.53;3.73;;;17.10;99.90;;;;;;4991940;28;20508;-37
2021/07/29 00:54:31;;;;;;;4.37;3.97;;;17.00;99.90;;;;;;5038413;28;20451;-37
2021/07/29 00:56:59;;;;;;;5.20;4.03;;;17.00;99.90;;;;;;5038380;28;20210;-37
2021/07/29 00:59:25;;;;;;;3.93;3.63;;;17.00;99.90;;;;;;5029162;28;20441;-37
2021/07/29 01:01:51;;;;;;;5.77;3.60;;;17.00;99.90;;;;;;5034093;28;20420;-37
2021/07/29 01:04:17;;;;;;;4.63;4.20;;;16.90;99.90;;;;;;5031071;28;20417;-37
2021/07/29 01:06:42;;;;;;;5.20;4.40;;;16.90;99.90;;;;;;5045979;28;20265;-37
2021/07/29 01:09:10;;;;;;;4.70;4.20;;;17.00;99.90;;;;;;5034659;28;20546;-37
2021/07/29 01:11:44;;;;;;;4.50;3.57;;;17.00;99.90;;;;;;5041436;28;20188;-36
2021/07/29 01:14:11;;;;;;;4.60;4.20;;;17.00;99.90;;;;;;5025418;28;20448;-38
2021/07/29 01:16:37;;;;;;;4.47;4.07;;;17.00;99.90;;;;;;5033812;28;20463;-37
2021/07/29 01:19:05;;;;;;;4.73;4.00;;;17.00;99.90;;;;;;5031296;28;20417;-37
2021/07/29 01:21:31;;;;;;;3.97;3.57;;;17.10;99.90;;;;;;5029399;28;20815;-37
2021/07/29 01:23:57;;;;;;;4.10;3.50;;;17.10;99.90;;;;;;5028774;28;20448;-37
2021/07/29 01:26:25;;;;;;;4.07;3.40;;;17.10;99.90;;;;;;5037059;28;20563;-37
2021/07/29 01:28:50;;;;;;;4.63;3.37;;;17.10;99.90;;;;;;5042439;28;20428;-37
2021/07/29 01:31:16;;;;;;;5.73;3.03;;;17.10;99.90;;;;;;5037417;28;20437;-37
2021/07/29 01:33:42;;;;;;;4.23;3.47;;;17.10;99.90;;;;;;5028995;28;20661;-37
2021/07/29 01:36:08;;;;;;;4.33;3.00;;;17.00;99.90;;;;;;5028857;28;20210;-37
2021/07/29 01:38:34;;;;;;;4.70;3.27;;;17.00;99.90;;;;;;5030874;28;20964;-37
2021/07/29 01:41:02;;;;;;;3.97;3.23;;;17.00;99.90;;;;;;5034183;28;20419;-37
2021/07/29 01:43:31;;;;;;;3.30;2.90;;;16.90;99.90;;;;;;5032689;28;20190;-37
2021/07/29 01:45:58;;;;;;;5.10;3.00;;;16.90;99.90;;;;;;5029416;28;20429;-36
2021/07/29 01:48:24;;;;;;;3.77;3.20;;;16.80;99.90;;;;;;5039279;28;20433;-36
2021/07/29 01:50:50;;;;;;;4.07;3.30;;;16.80;99.90;;;;;;5028930;28;20429;-36
2021/07/29 01:53:15;;;;;;;4.43;3.73;;;16.80;99.90;;;;;;5027307;28;20444;-37
2021/07/29 01:55:45;;;;;;;5.47;3.10;;;16.70;99.90;;;;;;5034980;28;20481;-37
2021/07/29 01:58:11;;;;;;;3.57;3.27;;;16.60;99.90;;;;;;5033371;28;20336;-36
2021/07/29 02:00:39;;;;;;;3.50;2.90;;;16.60;99.90;;;;;;5028983;28;20872;-37
2021/07/29 02:03:05;;;;;;;5.47;3.67;;;16.50;99.90;;;;;;5035459;28;20445;-37
2021/07/29 02:05:31;;;;;;;4.53;2.77;;;16.50;99.90;;;;;;5041209;28;20466;-36
2021/07/29 02:08:00;;;;;;;6.33;3.07;;;16.50;99.90;;;;;;5048076;28;20197;-37
2021/07/29 02:10:26;;;;;;;3.90;3.07;;;16.50;99.90;;;;;;5039058;28;20536;-37
2021/07/29 02:12:53;;;;;;;3.43;3.03;;;16.50;99.90;;;;;;5045990;28;20918;-37
2021/07/29 02:15:19;;;;;;;3.77;3.37;;;16.40;99.90;;;;;;5033547;28;20421;-37
2021/07/29 02:17:44;;;;;;;4.30;3.20;;;16.50;99.90;;;;;;5028136;28;20800;-37
2021/07/29 02:20:11;;;;;;;3.23;2.93;;;16.40;99.90;;;;;;5028048;28;20182;-36
2021/07/29 02:22:37;;;;;;;4.80;2.83;;;16.40;99.90;;;;;;5033722;28;20216;-36
2021/07/29 02:25:05;;;;;;;4.03;3.00;;;16.40;99.90;;;;;;5038635;28;20428;-36
2021/07/29 02:27:31;;;;;;;4.17;2.70;;;16.40;99.90;;;;;;5037440;28;20494;-37
2021/07/29 02:29:57;;;;;;;4.07;2.73;;;16.40;99.90;;;;;;5042886;28;20632;-36
2021/07/29 02:32:23;;;;;;;3.87;2.87;;;16.30;99.90;;;;;;5034939;28;20956;-36
2021/07/29 02:34:50;;;;;;;3.33;3.03;;;16.40;99.90;;;;;;5034130;28;20959;-37
2021/07/29 02:37:16;;;;;;;3.63;2.87;;;16.30;99.90;;;;;;5027684;28;20571;-37
2021/07/29 02:39:41;;;;;;;6.10;2.83;;;16.30;99.90;;;;;;5027938;28;20607;-36
2021/07/29 02:42:07;;;;;;;3.77;3.17;;;16.30;99.90;;;;;;5040192;28;20178;-37
2021/07/29 02:44:34;;;;;;;4.53;2.80;;;16.30;99.90;;;;;;5030405;28;20190;-37
2021/07/29 02:47:00;;;;;;;3.80;3.23;;;16.30;99.90;;;;;;5029552;28;20514;-36
2021/07/29 02:49:26;;;;;;;3.67;3.07;;;16.30;99.90;;;;;;5032139;28;20951;-36
2021/07/29 02:51:51;;;;;;;3.83;3.30;;;16.20;99.90;;;;;;5027703;28;20809;-36
2021/07/29 02:54:17;;;;;;;3.00;2.70;;;16.30;99.90;;;;;;5028910;28;20271;-36
2021/07/29 02:56:43;;;;;;;3.07;2.77;;;16.30;99.90;;;;;;5039265;28;20228;-36
2021/07/29 02:59:08;;;;;;;3.03;2.67;;;16.20;99.90;;;;;;5044823;28;20675;-38
2021/07/29 03:01:34;;;;;;;3.97;2.80;;;16.10;99.90;;;;;;5025996;28;20356;-37
2021/07/29 03:04:00;;;;;;;3.30;3.00;;;16.10;99.90;;;;;;5031227;28;20191;-38
2021/07/29 03:06:25;;;;;;;4.93;3.37;;;16.10;99.90;;;;;;5026087;28;20340;-38
2021/07/29 03:08:51;;;;;;;3.10;2.80;;;16.20;99.90;;;;;;5026870;28;20213;-36
2021/07/29 03:11:17;;;;;;;3.40;2.87;;;16.10;99.90;;;;;;5039164;28;20194;-37
2021/07/29 03:13:42;;;;;;;4.83;3.20;;;16.10;99.90;;;;;;5037108;28;20642;-38
2021/07/29 03:16:08;;;;;;;4.17;3.30;;;16.10;99.90;;;;;;5027424;28;20214;-37
2021/07/29 03:18:34;;;;;;;4.10;3.07;;;16.00;99.90;;;;;;5037960;28;20198;-37
2021/07/29 03:20:59;;;;;;;3.27;2.60;;;16.00;99.90;;;;;;5027634;28;20187;-36
2021/07/29 03:23:26;;;;;;;3.20;2.87;;;16.00;99.90;;;;;;5026722;28;20949;-36
2021/07/29 03:25:53;;;;;;;3.00;2.70;;;16.00;99.90;;;;;;5028709;28;20186;-37
2021/07/29 03:28:20;;;;;;;4.70;3.57;;;16.00;99.90;;;;;;5036932;28;20835;-37
2021/07/29 03:30:46;;;;;;;6.63;3.90;;;16.00;99.90;;;;;;5034596;28;20440;-36
2021/07/29 03:33:12;;;;;;;5.30;2.60;;;16.00;99.90;;;;;;5033685;28;20546;-37
2021/07/29 03:35:39;;;;;;;4.27;3.17;;;16.00;99.90;;;;;;5026961;28;20512;-36
2021/07/29 03:38:06;;;;;;;5.37;3.27;;;16.10;99.90;;;;;;5026395;28;20436;-37
2021/07/29 03:40:32;;;;;;;6.07;4.07;;;16.10;99.90;;;;;;5026857;28;20437;-37
2021/07/29 03:43:02;;;;;;;5.20;3.70;;;16.10;99.90;;;;;;5038620;28;20424;-36
2021/07/29 03:45:28;;;;;;;4.57;3.10;;;16.10;99.90;;;;;;5038133;28;20421;-36
2021/07/29 03:47:54;;;;;;;3.30;3.00;;;16.10;99.90;;;;;;5030099;28;20800;-36
2021/07/29 03:50:20;;;;;;;3.07;2.77;;;16.10;99.90;;;;;;5025264;28;20479;-36
2021/07/29 03:52:45;;;;;;;5.07;3.20;;;16.10;99.90;;;;;;5026821;28;20425;-37
2021/07/29 03:55:11;;;;;;;5.47;3.30;;;16.00;99.90;;;;;;5030272;28;20190;-36
2021/07/29 03:57:37;;;;;;;8.47;3.80;;;16.00;99.90;;;;;;5040273;28;20217;-36
2021/07/29 04:00:04;;;;;;;5.33;4.00;;;16.00;99.90;;;;;;5030290;28;20451;-37
2021/07/29 04:02:30;;;;;;;4.33;3.50;;;16.00;99.90;;;;;;5027409;28;20248;-37
2021/07/29 04:04:57;;;;;;;5.40;3.60;;;15.90;99.90;;;;;;5038061;28;20777;-37
2021/07/29 04:07:22;;;;;;;5.27;3.63;;;15.90;99.90;;;;;;5026057;28;20487;-37
2021/07/29 04:09:48;;;;;;;4.40;3.47;;;15.90;99.90;;;;;;5027539;28;20460;-37
2021/07/29 04:12:14;;;;;;;4.30;3.70;;;15.90;99.90;;;;;;5034218;28;20600;-37
2021/07/29 04:14:40;;;;;;;4.50;3.53;;;15.90;99.90;;;;;;5030929;28;20201;-36
2021/07/29 04:17:06;;;;;;;5.10;3.73;;;15.80;99.90;;;;;;5025701;28;20218;-36
2021/07/29 04:19:33;;;;;;;5.53;4.10;;;15.80;99.90;;;;;;5034982;28;20765;-36
2021/07/29 04:21:59;;;;;;;4.60;3.10;;;15.80;99.90;;;;;;5025988;28;20429;-38
2021/07/29 04:24:29;;;;;;;4.67;3.43;;;15.80;99.90;;;;;;5025464;28;20451;-37
2021/07/29 04:26:59;;;;;;;5.70;3.50;;;15.80;99.90;;;;;;5039040;28;20459;-36
2021/07/29 04:29:26;;;;;;;5.13;3.30;;;15.80;99.90;;;;;;5036537;28;20438;-36
2021/07/29 04:31:52;;;;;;;3.77;3.47;;;15.70;99.90;;;;;;5025823;28;20421;-36
2021/07/29 04:34:18;;;;;;;4.30;3.40;;;15.80;99.90;;;;;;5030585;28;20486;-37
2021/07/29 04:36:44;;;;;;;5.57;3.80;;;15.90;99.90;;;;;;5025487;28;21140;-37
2021/07/29 04:39:10;;;;;;;6.17;4.20;;;15.80;99.90;;;;;;5025550;28;20186;-36
2021/07/29 04:41:41;;;;;;;8.43;4.10;;;15.80;99.90;;;;;;5035112;28;20421;-37
2021/07/29 04:44:08;;;;;;;5.67;3.63;;;15.80;99.90;;;;;;5041864;28;20196;-37
2021/07/29 04:46:39;;;;;;;5.20;3.73;;;15.80;99.90;;;;;;5029447;28;20790;-37
2021/07/29 04:49:05;;;;;;;4.27;3.87;;;15.90;99.90;;;;;;5025746;28;20537;-36
2021/07/29 04:51:38;;;;;;;7.23;4.10;;;15.90;99.90;;;;;;5029241;28;20478;-36
2021/07/29 04:54:04;;;;;;;5.03;4.03;;;16.00;99.90;;;;;;5029404;28;20448;-36
2021/07/29 04:56:31;;;;;;;5.90;4.23;;;15.90;99.90;;;;;;5031665;28;20475;-36
2021/07/29 04:58:57;;;;;;;6.63;4.43;;;16.00;99.90;;;;;;5045839;28;20482;-36
2021/07/29 05:01:22;;;;;;;9.33;4.07;;;16.00;99.90;;;;;;5029843;28;20472;-37
2021/07/29 05:03:48;;;;;;;5.00;3.80;;;16.00;99.90;;;;;;5036977;28;20696;-36
2021/07/29 05:06:14;;;;;;;4.90;3.83;;;16.00;99.90;;;;;;5030720;28;20653;-37
2021/07/29 05:08:43;;;;;;;5.53;3.47;;;16.00;99.90;;;;;;5029495;28;20810;-36
2021/07/29 05:11:10;;;;;;;5.10;3.50;;;16.10;99.90;;;;;;5034956;28;20463;-37
2021/07/29 05:13:39;;;;;;;5.77;3.30;;;16.10;99.90;;;;;;5045328;28;20447;-37
2021/07/29 05:16:06;;;;;;;5.40;3.63;;;16.20;99.90;;;;;;5029784;28;20808;-36
2021/07/29 05:18:32;;;;;;;7.73;3.80;;;16.20;99.90;;;;;;5033639;28;20435;-36
2021/07/29 05:21:03;;;;;;;4.03;2.90;;;16.20;99.90;;;;;;5029565;28;20464;-38
2021/07/29 05:23:28;;;;;;;5.10;3.10;;;16.20;99.90;;;;;;5028693;28;20452;-36
2021/07/29 05:25:54;;;;;;;5.67;3.03;;;16.20;99.90;;;;;;5028402;28;20772;-36
2021/07/29 05:28:20;;;;;;;5.10;3.00;;;16.30;99.90;;;;;;5035885;28;20178;-36
2021/07/29 05:30:46;;;;;;;6.30;3.20;;;16.20;99.90;;;;;;5040844;28;20194;-36
2021/07/29 05:33:11;;;;;;;7.40;3.67;;;16.20;99.90;;;;;;5029376;28;20193;-37
2021/07/29 05:35:37;;;;;;;5.20;3.50;;;16.20;99.90;;;;;;5028979;28;20186;-37
2021/07/29 05:38:02;;;;;;;6.40;3.27;;;16.20;99.90;;;;;;5028284;28;20218;-36
2021/07/29 05:40:28;;;;;;;6.20;3.40;;;16.20;99.90;;;;;;5028721;28;20190;-36
2021/07/29 05:42:54;;;;;;;10.97;3.73;;;16.20;99.90;;;;;;5032805;28;20190;-37
2021/07/29 05:45:20;;;;;;;7.33;3.20;;;16.30;99.90;;;;;;5038177;28;20272;-37
2021/07/29 05:47:46;;;;;;;8.63;3.43;;;16.30;99.90;;;;;;5036391;28;20720;-36
2021/07/29 05:50:11;;;;;;;5.87;3.20;;;16.40;99.90;;;;;;5039450;28;20524;-36
2021/07/29 05:52:37;;;;;;;7.03;3.10;;;16.40;99.90;;;;;;5044871;28;20279;-36
2021/07/29 05:55:04;;;;;;;3.13;2.70;;;16.40;99.90;;;;;;5044511;28;20212;-36
2021/07/29 05:57:30;;;;;;;5.27;2.70;;;16.40;99.90;;;;;;5045711;28;20296;-37
2021/07/29 05:59:55;;;;;;;4.17;2.40;;;16.50;99.90;;;;;;5043329;28;20562;-37
2021/07/29 06:02:21;;;;;;;6.67;2.90;;;16.50;99.90;;;;;;5039741;28;20470;-36
2021/07/29 06:04:47;;;;;;;3.60;2.40;;;16.60;99.90;;;;;;5035743;28;20567;-36
2021/07/29 06:07:13;;;;;;;6.97;2.90;;;16.60;99.90;;;;;;5027940;28;20200;-36
2021/07/29 06:09:39;;;;;;;5.70;2.70;;;16.60;99.90;;;;;;5028215;28;20449;-37
2021/07/29 06:12:05;;;;;;;5.60;2.30;;;16.70;99.90;;;;;;5038115;28;20205;-36
2021/07/29 06:14:30;;;;;;;11.17;4.20;;;16.80;99.90;;;;;;5038562;28;20204;-37
2021/07/29 06:16:56;;;;;;;4.47;2.07;;;16.90;99.90;;;;;;5033910;28;20560;-37
2021/07/29 06:19:31;;;;;;;4.67;3.20;;;16.90;99.90;;;;;;5028905;28;20198;-37
2021/07/29 06:21:58;;;;;;;3.57;2.63;;;17.00;99.90;;;;;;5029261;28;20256;-36
2021/07/29 06:24:26;;;;;;;4.60;2.80;;;17.10;99.90;;;;;;5029458;28;20425;-36
2021/07/29 06:26:52;;;;;;;2.33;2.00;;;17.20;99.90;;;;;;5036109;28;21112;-36
2021/07/29 06:29:18;;;;;;;4.00;2.43;;;17.20;99.90;;;;;;5041245;28;20562;-36
2021/07/29 06:31:44;;;;;;;5.20;2.33;;;17.20;99.90;;;;;;5028165;28;20520;-37
2021/07/29 06:34:10;;;;;;;3.30;2.10;;;17.40;99.90;;;;;;5033296;28;20189;-37
2021/07/29 06:36:35;;;;;;;4.60;2.13;;;17.50;99.90;;;;;;5031926;28;20578;-36
2021/07/29 06:39:02;;;;;;;3.03;2.10;;;17.60;99.90;;;;;;5027522;28;20217;-38
2021/07/29 06:41:27;;;;;;;3.40;2.43;;;17.70;99.90;;;;;;5037938;28;20336;-36
2021/07/29 06:43:53;;;;;;;6.03;2.40;;;17.80;99.90;;;;;;5039954;28;21026;-37
2021/07/29 06:46:19;;;;;;;2.70;2.30;;;17.90;99.90;;;;;;5038658;28;20185;-36
2021/07/29 06:48:44;;;;;;;3.07;1.93;;;18.00;99.90;;;;;;5020264;28;20719;-37
2021/07/29 06:51:10;;;;;;;3.23;1.90;;;18.00;99.90;;;;;;5032329;28;20194;-36
2021/07/29 06:53:36;;;;;;;4.80;2.53;;;18.00;99.90;;;;;;5027577;28;20433;-36
2021/07/29 06:56:06;;;;;;;4.90;2.17;;;18.10;99.90;;;;;;5027568;28;20656;-36
2021/07/29 06:58:32;;;;;;;3.13;1.90;;;18.20;99.90;;;;;;5042605;28;20470;-36
2021/07/29 07:01:05;;;;;;;5.60;2.60;;;18.20;99.90;;;;;;5041909;28;20799;-37
2021/07/29 07:03:31;;;;;;;5.07;2.33;;;18.20;99.90;;;;;;5026491;28;20433;-36
2021/07/29 07:06:04;;;;;;;3.60;2.10;;;18.20;99.90;;;;;;5029830;28;20437;-36
2021/07/29 07:08:30;;;;;;;3.83;2.07;;;18.30;99.90;;;;;;5026753;28;20945;-36
2021/07/29 07:10:56;;;;;;;4.60;2.27;;;18.40;99.90;;;;;;5029981;28;20520;-36
2021/07/29 07:13:21;;;;;;;5.97;2.00;;;18.40;99.90;;;;;;5035918;28;20194;-37
2021/07/29 07:15:47;;;;;;;3.50;1.80;;;18.30;99.90;;;;;;5029578;28;20237;-36
2021/07/29 07:18:14;;;;;;;5.53;2.70;;;18.40;99.90;;;;;;5026337;28;20272;-36
2021/07/29 07:20:40;;;;;;;4.23;2.13;;;18.40;99.90;;;;;;5038292;28;20425;-36
2021/07/29 07:23:06;;;;;;;5.87;1.97;;;18.40;99.90;;;;;;5027032;28;20194;-36
2021/07/29 07:25:35;;;;;;;2.90;1.67;;;18.50;99.90;;;;;;5024888;28;20190;-37
2021/07/29 07:28:01;;;;;;;3.30;1.53;;;18.50;99.90;;;;;;5031235;28;20178;-36
2021/07/29 07:30:26;;;;;;;4.40;2.10;;;18.60;99.90;;;;;;5037190;28;20436;-37
2021/07/29 07:32:52;;;;;;;4.90;2.30;;;18.60;99.90;;;;;;5026851;28;20209;-38
2021/07/29 07:35:18;;;;;;;4.63;2.60;;;18.60;99.90;;;;;;5033365;28;20596;-37
2021/07/29 07:37:43;;;;;;;6.70;2.00;;;18.70;99.90;;;;;;5026242;28;20758;-36
2021/07/29 07:40:10;;;;;;;6.53;2.70;;;18.60;99.90;;;;;;5026198;28;20221;-37
2021/07/29 07:42:36;;;;;;;3.20;2.03;;;18.70;99.90;;;;;;5036857;28;20240;-37
2021/07/29 07:45:01;;;;;;;4.20;1.87;;;18.70;99.90;;;;;;5041828;28;20824;-37
2021/07/29 07:47:29;;;;;;;6.73;1.90;;;18.60;99.90;;;;;;5033998;28;20190;-37
2021/07/29 07:49:55;;;;;;;3.43;1.70;;;18.60;99.90;;;;;;5026676;28;20187;-37
2021/07/29 07:52:21;;;;;;;1.93;1.60;;;18.60;99.90;;;;;;5026630;28;20468;-37
2021/07/29 07:54:46;;;;;;;7.30;2.10;;;18.60;99.90;;;;;;5026131;28;20468;-37
2021/07/29 07:57:12;;;;;;;3.60;1.90;;;18.70;99.90;;;;;;5031643;28;20473;-37
2021/07/29 07:59:39;;;;;;;5.53;2.20;;;18.70;99.90;;;;;;5031696;28;20585;-37
2021/07/29 08:02:05;;;;;;;6.47;2.20;;;18.70;99.90;;;;;;5027494;28;20695;-36
2021/07/29 08:04:31;;;;;;;5.77;2.20;;;18.70;99.90;;;;;;5030084;28;20436;-37
2021/07/29 08:06:57;;;;;;;7.20;2.07;;;18.60;99.90;;;;;;5034184;28;20629;-37
2021/07/29 08:09:22;;;;;;;3.70;2.10;;;18.60;99.90;;;;;;5026273;28;20449;-37
2021/07/29 08:11:48;;;;;;;3.40;1.80;;;18.60;99.90;;;;;;5026799;28;20232;-38
2021/07/29 08:14:14;;;;;;;2.00;1.50;;;18.50;99.90;;;;;;5028610;28;20515;-37
2021/07/29 08:16:39;;;;;;;4.70;2.70;;;18.40;99.90;;;;;;5028613;28;20242;-37
2021/07/29 08:19:05;;;;;;;7.40;3.07;;;18.50;99.90;;;;;;5025812;28;20276;-36
2021/07/29 08:21:31;;;;;;;3.97;2.03;;;18.50;99.90;;;;;;5034311;28;20183;-37
2021/07/29 08:23:57;;;;;;;3.30;2.10;;;18.60;99.90;;;;;;5025339;28;20421;-37
2021/07/29 08:26:23;;;;;;;3.27;2.40;;;18.60;99.90;;;;;;5024436;28;20218;-37
2021/07/29 08:28:52;;;;;;;2.97;2.03;;;18.60;99.90;;;;;;5036393;28;20460;-37
2021/07/29 08:31:18;;;;;;;3.10;2.10;;;18.60;99.90;;;;;;5044165;28;20204;-37
2021/07/29 08:33:44;;;;;;;4.93;2.67;;;18.60;99.90;;;;;;5027144;28;20883;-38
2021/07/29 08:36:16;;;;;;;5.87;2.27;;;18.70;99.90;;;;;;4979983;28;20564;-36
2021/07/29 08:38:43;;;;;;;4.83;2.30;;;18.70;99.90;;;;;;5025108;28;20552;-36
2021/07/29 08:41:09;;;;;;;2.90;2.10;;;18.70;99.90;;;;;;5025317;28;20532;-36
2021/07/29 08:43:35;;;;;;;4.00;2.00;;;18.70;99.90;;;;;;5036109;28;20420;-36
2021/07/29 08:46:07;;;;;;;4.57;2.27;;;18.70;99.90;;;;;;5038839;28;20850;-37
2021/07/29 08:48:35;;;;;;;5.60;2.70;;;18.70;99.90;;;;;;5024197;28;20465;-36
2021/07/29 08:51:01;;;;;;;4.20;2.40;;;18.80;99.90;;;;;;5038056;28;20477;-37
2021/07/29 08:53:27;;;;;;;5.03;2.40;;;18.80;99.90;;;;;;5039008;28;20421;-36
2021/07/29 08:55:54;;;;;;;9.03;2.63;;;18.70;99.90;;;;;;5025168;28;20186;-36
2021/07/29 08:58:20;;;;;;;4.73;2.50;;;18.80;99.90;;;;;;5029780;28;20644;-36
2021/07/29 09:00:59;;;;;;;4.40;2.00;;;18.80;99.90;;;;;;5034896;28;20417;-37
2021/07/29 09:03:27;;;;;;;4.27;2.10;;;18.90;99.90;;;;;;5025496;28;20413;-36
2021/07/29 09:06:05;;;;;;;3.20;2.30;;;18.90;99.90;;;;;;5033654;28;20950;-37
2021/07/29 09:08:47;;;;;;;4.00;1.60;;;18.90;99.90;;;;;;5025028;28;20433;-37
2021/07/29 09:11:28;;;;;;;4.07;1.60;;;19.00;99.90;;;;;;5024650;28;20978;-36
2021/07/29 09:14:07;;;;;;;4.60;2.10;;;19.00;99.90;;;;;;5035141;28;21064;-37
2021/07/29 09:16:37;;;;;;;4.60;1.90;;;19.00;99.90;;;;;;5040732;28;20822;-36
2021/07/29 09:19:04;;;;;;;7.27;2.10;;;19.00;99.90;;;;;;5026965;28;20452;-37
2021/07/29 09:21:30;;;;;;;4.47;2.63;;;19.00;99.90;;;;;;5028946;28;20409;-37
2021/07/29 09:24:09;;;;;;;4.13;2.27;;;19.10;99.90;;;;;;5024849;28;20888;-37
2021/07/29 09:26:55;;;;;;;4.30;2.30;;;19.20;99.90;;;;;;5024874;28;20422;-37
2021/07/29 09:29:21;;;;;;;5.30;2.10;;;19.20;99.90;;;;;;5036670;28;20416;-36
2021/07/29 09:31:47;;;;;;;3.30;2.23;;;19.30;99.90;;;;;;5036713;28;20946;-37
2021/07/29 09:34:12;;;;;;;3.97;2.13;;;19.30;99.90;;;;;;5023334;28;20452;-36
2021/07/29 09:36:38;;;;;;;5.33;2.20;;;19.40;99.90;;;;;;5039239;28;20315;-36
2021/07/29 09:39:17;;;;;;;3.10;1.80;;;19.50;99.90;;;;;;5028218;28;20318;-36
2021/07/29 09:41:43;;;;;;;2.43;2.00;;;19.50;99.90;;;;;;5027978;28;20174;-36
2021/07/29 09:44:09;;;;;;;6.20;2.30;;;19.50;99.90;;;;;;5029932;28;20768;-36
2021/07/29 09:46:36;;;;;;;6.67;2.10;;;19.50;99.90;;;;;;5038222;28;20241;-37
2021/07/29 09:49:02;;;;;;;5.33;2.20;;;19.50;99.90;;;;;;5027147;28;20241;-36
2021/07/29 09:51:30;;;;;;;4.27;2.40;;;19.50;99.90;;;;;;5035924;28;20461;-36
2021/07/29 09:53:57;;;;;;;6.87;2.57;;;19.50;99.90;;;;;;5028071;28;20206;-36
2021/07/29 09:56:23;;;;;;;7.20;1.93;;;19.50;99.90;;;;;;5027981;28;20991;-36
2021/07/29 09:58:48;;;;;;;6.87;2.27;;;19.50;99.90;;;;;;5029424;28;20543;-36
2021/07/29 10:01:16;;;;;;;7.10;2.00;;;19.50;99.90;;;;;;5040017;28;20193;-36
2021/07/29 10:03:48;;;;;;;3.10;2.33;;;19.60;99.90;;;;;;5035638;28;20553;-36
2021/07/29 10:06:16;;;;;;;3.03;2.10;;;19.70;99.90;;;;;;5041540;28;20429;-36
2021/07/29 10:09:00;;;;;;;3.33;1.83;;;19.90;99.90;;;;;;5027590;28;20449;-36
2021/07/29 10:11:29;;;;;;;3.10;1.90;;;20.00;99.90;;;;;;5034886;28;20431;-36
2021/07/29 10:13:55;;;;;;;4.37;2.00;;;20.00;99.90;;;;;;5035978;28;20444;-37
2021/07/29 10:16:50;;;;;;;4.90;2.10;;;20.10;99.90;;;;;;5042486;28;20461;-37
2021/07/29 10:19:17;;;;;;;2.40;1.80;;;20.20;99.90;;;;;;5027480;28;20671;-36
2021/07/29 10:21:47;;;;;;;5.43;2.53;;;20.20;99.90;;;;;;5040314;28;20424;-36
2021/07/29 10:24:13;;;;;;;3.57;1.90;;;20.20;99.90;;;;;;5027848;28;20429;-37
2021/07/29 10:27:09;;;;;;;3.87;2.37;;;20.20;99.90;;;;;;5027998;28;20431;-37
2021/07/29 10:29:34;;;;;;;3.43;2.07;;;20.20;99.90;;;;;;5029935;28;20520;-37
2021/07/29 10:32:02;;;;;;;2.90;1.63;;;20.20;99.90;;;;;;5032535;28;20520;-36
2021/07/29 10:34:30;;;;;;;5.20;2.00;;;20.10;99.90;;;;;;5026009;28;20202;-36
2021/07/29 10:37:00;;;;;;;2.70;2.10;;;20.10;99.90;;;;;;5036391;28;20892;-38
2021/07/29 10:39:27;;;;;;;4.17;2.47;;;20.10;99.90;;;;;;5027740;28;20434;-36
2021/07/29 10:42:03;;;;;;;4.83;2.47;;;20.10;99.90;;;;;;5027243;28;20545;-37
2021/07/29 10:44:32;;;;;;;4.10;2.20;;;20.20;99.90;;;;;;5038615;28;20583;-36
2021/07/29 10:46:58;;;;;;;3.27;1.93;;;20.20;99.90;;;;;;5039530;28;20425;-37
2021/07/29 10:49:43;;;;;;;10.20;2.47;;;20.20;99.90;;;;;;5026144;28;20520;-36
2021/07/29 10:52:10;;;;;;;2.97;1.80;;;20.20;99.90;;;;;;5032899;28;20447;-36
2021/07/29 10:54:37;;;;;;;2.10;1.60;;;20.30;99.90;;;;;;5026907;28;20425;-36
2021/07/29 10:57:04;;;;;;;6.30;2.37;;;20.30;99.90;;;;;;5026978;28;20579;-37
2021/07/29 10:59:32;;;;;;;3.50;1.80;;;20.30;99.90;;;;;;5039115;28;20430;-36
2021/07/29 11:02:00;;;;;;;5.20;2.37;;;20.40;99.90;;;;;;5043191;28;20431;-36
2021/07/29 11:04:28;;;;;;;4.33;2.47;;;20.30;99.60;;;;;;5029515;28;20738;-36
2021/07/29 11:07:01;;;;;;;5.23;2.13;;;20.30;99.70;;;;;;5027317;28;20433;-36
2021/07/29 11:09:31;;;;;;;4.13;2.10;;;20.40;99.60;;;;;;5026372;28;20502;-36
2021/07/29 11:11:57;;;;;;;3.93;1.73;;;20.40;99.40;;;;;;5026899;28;20587;-37
2021/07/29 11:14:30;;;;;;;3.73;1.90;;;20.50;99.70;;;;;;5027374;28;20439;-36
2021/07/29 11:16:57;;;;;;;3.90;1.80;;;20.60;99.90;;;;;;5039035;28;20453;-37
2021/07/29 11:19:24;;;;;;;5.33;2.20;;;20.60;99.70;;;;;;5026572;28;20476;-37
2021/07/29 11:22:03;;;;;;;3.73;2.30;;;20.70;99.90;;;;;;5030413;28;20474;-36
2021/07/29 11:24:29;;;;;;;4.03;2.17;;;20.70;99.90;;;;;;5039622;28;20927;-37
2021/07/29 11:26:55;;;;;;;2.57;1.90;;;20.70;99.70;;;;;;5034390;28;20466;-37
2021/07/29 11:29:21;;;;;;;5.30;2.10;;;20.70;99.50;;;;;;5036055;28;20455;-37
2021/07/29 11:31:52;;;;;;;4.13;2.40;;;20.70;99.70;;;;;;5036544;28;20416;-37
2021/07/29 11:34:17;;;;;;;1.83;1.53;;;20.80;99.90;;;;;;5025938;28;20260;-37
2021/07/29 11:36:52;;;;;;;4.10;1.90;;;20.80;99.50;;;;;;5030556;28;20829;-36
2021/07/29 11:39:17;;;;;;;4.10;1.70;;;20.80;99.10;;;;;;5035750;28;20271;-36
2021/07/29 11:41:56;;;;;;;3.80;1.57;;;20.90;98.50;;;;;;5028149;28;20624;-36
2021/07/29 11:44:35;;;;;;;3.57;1.70;;;20.80;98.60;;;;;;5037659;28;20696;-36
2021/07/29 11:47:02;;;;;;;4.50;2.23;;;20.80;98.10;;;;;;5041192;28;20773;-37
2021/07/29 11:49:28;;;;;;;3.07;1.93;;;20.90;99.10;;;;;;5030432;28;20915;-37
2021/07/29 11:52:10;;;;;;;5.17;2.50;;;20.90;99.30;;;;;;5026443;28;20432;-37
2021/07/29 11:54:37;;;;;;;6.53;2.80;;;20.90;99.50;;;;;;5026120;28;20218;-37
2021/07/29 11:57:03;;;;;;;3.40;2.00;;;20.90;97.90;;;;;;5025794;28;20527;-36
2021/07/29 11:59:37;;;;;;;4.60;2.37;;;20.90;97.30;;;;;;5029041;28;20583;-36
2021/07/29 12:02:04;;;;;;;2.70;1.83;;;20.80;97.60;;;;;;5029498;28;20476;-37
2021/07/29 12:04:37;;;;;;;3.93;2.37;;;20.80;97.90;;;;;;5030221;28;20594;-37
2021/07/29 12:07:04;;;;;;;3.53;2.17;;;20.80;98.10;;;;;;5045392;28;20423;-37
2021/07/29 12:09:33;;;;;;;5.33;2.70;;;20.90;99.50;;;;;;5025250;28;20544;-37
2021/07/29 12:12:00;;;;;;;6.27;2.40;;;21.00;98.70;;;;;;5024402;28;20440;-36
2021/07/29 12:14:26;;;;;;;4.80;2.30;;;21.00;99.60;;;;;;5025809;28;21032;-36
2021/07/29 12:16:54;;;;;;;4.60;2.57;;;21.10;98.70;;;;;;5040292;28;20464;-36
2021/07/29 12:19:20;;;;;;;2.17;1.67;;;21.20;98.20;;;;;;5032097;28;20420;-36
2021/07/29 12:21:47;;;;;;;6.63;2.30;;;21.20;97.30;;;;;;5041220;28;20482;-37
2021/07/29 12:24:14;;;;;;;3.53;2.17;;;21.20;97.20;;;;;;5030610;28;20439;-36
2021/07/29 12:26:40;;;;;;;4.60;2.17;;;21.20;97.90;;;;;;5039527;28;20794;-36
2021/07/29 12:29:06;;;;;;;2.90;2.60;;;21.20;97.50;;;;;;5034026;28;20453;-36
2021/07/29 12:31:33;;;;;;;3.67;2.10;;;21.20;97.60;;;;;;5037490;28;20424;-36
2021/07/29 12:34:06;;;;;;;3.07;2.57;;;21.20;98.20;;;;;;5027767;28;20436;-36
2021/07/29 12:36:48;;;;;;;5.13;2.33;;;21.40;98.40;;;;;;5025469;28;20488;-37
2021/07/29 12:39:18;;;;;;;3.30;2.40;;;21.50;96.90;;;;;;5025193;28;20944;-36
2021/07/29 12:41:46;;;;;;;5.23;2.50;;;21.50;97.00;;;;;;5025296;28;20472;-36
2021/07/29 12:44:14;;;;;;;4.17;2.30;;;21.50;96.10;;;;;;5032584;28;20451;-37
2021/07/29 12:46:41;;;;;;;4.10;2.53;;;21.50;96.40;;;;;;5031768;28;20448;-36
2021/07/29 12:49:07;;;;;;;3.50;2.43;;;21.60;96.60;;;;;;5026084;28;20429;-36